Terminal Aerodrome Forecast
Issued by NWS

Home | Current Version | Previous Version | Text Only | Print | Product List | Glossary On
Versions: 1 2 3 4 5 6 7 8 9 10 11 12 13 14 15 16 17 18 19 20 21 22 23 24 25 26 27 28 29 30 31 32 33 34
253
FTUS46 KLOX 211758
TAFSBP
TAF
KSBP 211758Z 2118/2218 VRB03KT P6SM VCSH SCT025 BKN040
     FM212000 27008KT P6SM SCT025 OVC150
     FM220300 VRB03KT P6SM SCT025 OVC100
     FM220900 14012G20KT 5SM -RA BR BKN025 OVC050
     FM221300 14020G30KT 1SM +RA BR SCT008 OVC015=

USA.gov is the U.S. government's official web portal to all federal, state and local government web resources and services.